sensor_id;sensor_type;location;lat;lon;timestamp;temperature;humidity
8914;DHT22;4492;48.736;9.092;2022-12-29T00:02:16;7.70;99.90
8914;DHT22;4492;48.736;9.092;2022-12-29T00:04:43;7.70;99.90
8914;DHT22;4492;48.736;9.092;2022-12-29T00:07:09;7.70;99.90
8914;DHT22;4492;48.736;9.092;2022-12-29T00:09:35;7.80;99.90
8914;DHT22;4492;48.736;9.092;2022-12-29T00:12:02;7.90;99.90
8914;DHT22;4492;48.736;9.092;2022-12-29T00:14:28;7.90;99.90
8914;DHT22;4492;48.736;9.092;2022-12-29T00:17:12;7.90;99.90
8914;DHT22;4492;48.736;9.092;2022-12-29T00:19:38;8.00;99.90
8914;DHT22;4492;48.736;9.092;2022-12-29T00:22:22;8.00;99.90
8914;DHT22;4492;48.736;9.092;2022-12-29T00:25:11;8.00;99.90
8914;DHT22;4492;48.736;9.092;2022-12-29T00:27:57;8.00;99.90
8914;DHT22;4492;48.736;9.092;2022-12-29T00:30:41;7.90;99.90
8914;DHT22;4492;48.736;9.092;2022-12-29T00:33:29;8.00;99.90
8914;DHT22;4492;48.736;9.092;2022-12-29T00:38:55;8.00;99.90
8914;DHT22;4492;48.736;9.092;2022-12-29T00:41:41;8.00;99.90
8914;DHT22;4492;48.736;9.092;2022-12-29T00:44:25;8.00;99.90
8914;DHT22;4492;48.736;9.092;2022-12-29T00:46:51;8.00;99.90
8914;DHT22;4492;48.736;9.092;2022-12-29T00:49:16;8.10;99.90
8914;DHT22;4492;48.736;9.092;2022-12-29T00:52:05;8.10;99.90
8914;DHT22;4492;48.736;9.092;2022-12-29T00:54:33;8.10;99.90
8914;DHT22;4492;48.736;9.092;2022-12-29T00:57:00;8.10;99.90
8914;DHT22;4492;48.736;9.092;2022-12-29T00:59:26;8.20;99.90
8914;DHT22;4492;48.736;9.092;2022-12-29T01:01:53;8.30;99.90
8914;DHT22;4492;48.736;9.092;2022-12-29T01:04:20;8.30;99.90
8914;DHT22;4492;48.736;9.092;2022-12-29T01:06:46;8.30;99.90
8914;DHT22;4492;48.736;9.092;2022-12-29T01:09:12;8.30;99.90
8914;DHT22;4492;48.736;9.092;2022-12-29T01:11:57;8.30;99.90
8914;DHT22;4492;48.736;9.092;2022-12-29T01:14:23;8.30;99.90
8914;DHT22;4492;48.736;9.092;2022-12-29T01:16:49;8.30;99.90
8914;DHT22;4492;48.736;9.092;2022-12-29T01:19:15;8.20;99.90
8914;DHT22;4492;48.736;9.092;2022-12-29T01:21:41;8.30;99.90
8914;DHT22;4492;48.736;9.092;2022-12-29T01:24:07;8.30;99.90
8914;DHT22;4492;48.736;9.092;2022-12-29T01:26:33;8.30;99.90
8914;DHT22;4492;48.736;9.092;2022-12-29T01:28:59;8.40;99.90
8914;DHT22;4492;48.736;9.092;2022-12-29T01:31:24;8.40;99.90
8914;DHT22;4492;48.736;9.092;2022-12-29T01:33:50;8.50;99.90
8914;DHT22;4492;48.736;9.092;2022-12-29T01:36:17;8.50;99.90
8914;DHT22;4492;48.736;9.092;2022-12-29T01:38:43;8.50;99.90
8914;DHT22;4492;48.736;9.092;2022-12-29T01:41:13;8.50;99.90
8914;DHT22;4492;48.736;9.092;2022-12-29T01:43:48;8.60;99.90
8914;DHT22;4492;48.736;9.092;2022-12-29T01:46:36;8.50;99.90
8914;DHT22;4492;48.736;9.092;2022-12-29T01:49:16;8.60;99.90
8914;DHT22;4492;48.736;9.092;2022-12-29T01:51:45;8.70;99.90
8914;DHT22;4492;48.736;9.092;2022-12-29T01:54:47;8.70;99.90
8914;DHT22;4492;48.736;9.092;2022-12-29T01:57:28;8.70;99.90
8914;DHT22;4492;48.736;9.092;2022-12-29T02:00:00;8.80;99.90
8914;DHT22;4492;48.736;9.092;2022-12-29T02:02:27;8.80;99.90
8914;DHT22;4492;48.736;9.092;2022-12-29T02:04:54;8.80;99.90
8914;DHT22;4492;48.736;9.092;2022-12-29T02:07:22;8.80;99.90
8914;DHT22;4492;48.736;9.092;2022-12-29T02:09:51;8.80;99.90
8914;DHT22;4492;48.736;9.092;2022-12-29T02:12:18;8.90;99.90
8914;DHT22;4492;48.736;9.092;2022-12-29T02:14:45;8.80;99.90
8914;DHT22;4492;48.736;9.092;2022-12-29T02:17:22;8.80;99.90
8914;DHT22;4492;48.736;9.092;2022-12-29T02:28:57;8.80;99.90
8914;DHT22;4492;48.736;9.092;2022-12-29T02:31:41;8.80;99.90
8914;DHT22;4492;48.736;9.092;2022-12-29T02:37:24;8.80;99.90
8914;DHT22;4492;48.736;9.092;2022-12-29T02:45:41;8.90;99.90
8914;DHT22;4492;48.736;9.092;2022-12-29T02:48:18;9.00;99.90
8914;DHT22;4492;48.736;9.092;2022-12-29T02:51:09;9.00;99.90
8914;DHT22;4492;48.736;9.092;2022-12-29T02:53:38;9.10;99.90
8914;DHT22;4492;48.736;9.092;2022-12-29T02:56:23;9.10;99.90
8914;DHT22;4492;48.736;9.092;2022-12-29T02:58:49;9.10;99.90
8914;DHT22;4492;48.736;9.092;2022-12-29T03:01:51;9.10;99.90
8914;DHT22;4492;48.736;9.092;2022-12-29T03:04:43;9.10;99.90
8914;DHT22;4492;48.736;9.092;2022-12-29T03:12:56;9.30;99.90
8914;DHT22;4492;48.736;9.092;2022-12-29T03:15:54;9.30;99.90
8914;DHT22;4492;48.736;9.092;2022-12-29T03:21:37;9.50;99.90
8914;DHT22;4492;48.736;9.092;2022-12-29T03:24:31;9.60;99.90
8914;DHT22;4492;48.736;9.092;2022-12-29T03:27:00;9.60;99.90
8914;DHT22;4492;48.736;9.092;2022-12-29T03:29:30;9.70;99.90
8914;DHT22;4492;48.736;9.092;2022-12-29T03:31:59;9.70;99.90
8914;DHT22;4492;48.736;9.092;2022-12-29T03:34:28;9.70;99.90
8914;DHT22;4492;48.736;9.092;2022-12-29T03:37:11;9.70;99.90
8914;DHT22;4492;48.736;9.092;2022-12-29T03:39:38;9.60;99.90
8914;DHT22;4492;48.736;9.092;2022-12-29T03:42:14;9.70;99.90
8914;DHT22;4492;48.736;9.092;2022-12-29T03:44:42;9.70;99.90
8914;DHT22;4492;48.736;9.092;2022-12-29T03:47:11;9.70;99.90
8914;DHT22;4492;48.736;9.092;2022-12-29T03:49:37;9.70;99.90
8914;DHT22;4492;48.736;9.092;2022-12-29T03:52:02;9.70;99.90
8914;DHT22;4492;48.736;9.092;2022-12-29T03:54:29;9.70;99.90
8914;DHT22;4492;48.736;9.092;2022-12-29T03:56:54;9.60;99.90
8914;DHT22;4492;48.736;9.092;2022-12-29T03:59:20;9.60;99.90
8914;DHT22;4492;48.736;9.092;2022-12-29T04:01:45;9.60;99.90
8914;DHT22;4492;48.736;9.092;2022-12-29T04:04:11;9.50;99.90
8914;DHT22;4492;48.736;9.092;2022-12-29T04:06:37;9.40;99.90
8914;DHT22;4492;48.736;9.092;2022-12-29T04:09:03;9.30;99.90
8914;DHT22;4492;48.736;9.092;2022-12-29T04:11:28;9.30;99.90
8914;DHT22;4492;48.736;9.092;2022-12-29T04:13:54;9.20;99.90
8914;DHT22;4492;48.736;9.092;2022-12-29T04:16:19;9.20;99.90
8914;DHT22;4492;48.736;9.092;2022-12-29T04:18:45;9.10;99.90
8914;DHT22;4492;48.736;9.092;2022-12-29T04:21:10;9.00;99.90
8914;DHT22;4492;48.736;9.092;2022-12-29T04:23:38;9.00;99.90
8914;DHT22;4492;48.736;9.092;2022-12-29T04:26:05;8.90;99.90
8914;DHT22;4492;48.736;9.092;2022-12-29T04:28:33;8.90;99.90
8914;DHT22;4492;48.736;9.092;2022-12-29T04:30:59;8.90;99.90
8914;DHT22;4492;48.736;9.092;2022-12-29T04:33:25;8.90;99.90
8914;DHT22;4492;48.736;9.092;2022-12-29T04:35:51;9.00;99.90
8914;DHT22;4492;48.736;9.092;2022-12-29T04:38:20;9.10;99.90
8914;DHT22;4492;48.736;9.092;2022-12-29T04:40:47;9.10;99.90
8914;DHT22;4492;48.736;9.092;2022-12-29T04:43:13;9.20;99.90
8914;DHT22;4492;48.736;9.092;2022-12-29T04:45:43;9.20;99.90
8914;DHT22;4492;48.736;9.092;2022-12-29T04:48:08;9.30;99.90
8914;DHT22;4492;48.736;9.092;2022-12-29T04:50:34;9.30;99.90
8914;DHT22;4492;48.736;9.092;2022-12-29T04:53:00;9.30;99.90
8914;DHT22;4492;48.736;9.092;2022-12-29T04:55:25;9.30;99.90
8914;DHT22;4492;48.736;9.092;2022-12-29T04:57:51;9.40;99.90
8914;DHT22;4492;48.736;9.092;2022-12-29T05:00:17;9.40;99.90
8914;DHT22;4492;48.736;9.092;2022-12-29T05:02:42;9.50;99.90
8914;DHT22;4492;48.736;9.092;2022-12-29T05:05:08;9.50;99.90
8914;DHT22;4492;48.736;9.092;2022-12-29T05:07:34;9.60;99.90
8914;DHT22;4492;48.736;9.092;2022-12-29T05:10:00;9.60;99.90
8914;DHT22;4492;48.736;9.092;2022-12-29T05:12:25;9.50;99.90
8914;DHT22;4492;48.736;9.092;2022-12-29T05:14:54;9.50;99.90
8914;DHT22;4492;48.736;9.092;2022-12-29T05:17:19;9.40;99.90
8914;DHT22;4492;48.736;9.092;2022-12-29T05:19:45;9.40;99.90
8914;DHT22;4492;48.736;9.092;2022-12-29T05:22:10;9.30;99.90
8914;DHT22;4492;48.736;9.092;2022-12-29T05:24:36;9.30;99.90
8914;DHT22;4492;48.736;9.092;2022-12-29T05:27:02;9.20;99.90
8914;DHT22;4492;48.736;9.092;2022-12-29T05:29:27;9.10;99.90
8914;DHT22;4492;48.736;9.092;2022-12-29T05:31:53;9.10;99.90
8914;DHT22;4492;48.736;9.092;2022-12-29T05:34:18;9.10;99.90
8914;DHT22;4492;48.736;9.092;2022-12-29T05:36:44;9.10;99.90
8914;DHT22;4492;48.736;9.092;2022-12-29T05:39:09;9.10;99.90
8914;DHT22;4492;48.736;9.092;2022-12-29T05:41:35;9.10;99.90
8914;DHT22;4492;48.736;9.092;2022-12-29T05:44:01;9.20;99.90
8914;DHT22;4492;48.736;9.092;2022-12-29T05:46:27;9.30;99.90
8914;DHT22;4492;48.736;9.092;2022-12-29T05:48:52;9.30;99.90
8914;DHT22;4492;48.736;9.092;2022-12-29T05:51:18;9.20;99.90
8914;DHT22;4492;48.736;9.092;2022-12-29T05:53:44;9.20;99.90
8914;DHT22;4492;48.736;9.092;2022-12-29T05:56:09;9.20;99.90
8914;DHT22;4492;48.736;9.092;2022-12-29T05:58:35;9.20;99.90
8914;DHT22;4492;48.736;9.092;2022-12-29T06:01:00;9.30;99.90
8914;DHT22;4492;48.736;9.092;2022-12-29T06:03:26;9.30;99.90
8914;DHT22;4492;48.736;9.092;2022-12-29T06:05:51;9.40;99.90
8914;DHT22;4492;48.736;9.092;2022-12-29T06:08:17;9.40;99.90
8914;DHT22;4492;48.736;9.092;2022-12-29T06:10:43;9.40;99.90
8914;DHT22;4492;48.736;9.092;2022-12-29T06:13:09;9.40;99.90
8914;DHT22;4492;48.736;9.092;2022-12-29T06:15:34;9.40;99.90
8914;DHT22;4492;48.736;9.092;2022-12-29T06:18:00;9.30;99.90
8914;DHT22;4492;48.736;9.092;2022-12-29T06:20:26;9.30;99.90
8914;DHT22;4492;48.736;9.092;2022-12-29T06:22:51;9.30;99.90
8914;DHT22;4492;48.736;9.092;2022-12-29T06:25:17;9.40;99.90
8914;DHT22;4492;48.736;9.092;2022-12-29T06:27:43;9.30;99.90
8914;DHT22;4492;48.736;9.092;2022-12-29T06:30:09;9.40;99.90
8914;DHT22;4492;48.736;9.092;2022-12-29T06:32:35;9.40;99.90
8914;DHT22;4492;48.736;9.092;2022-12-29T06:35:02;9.40;99.90
8914;DHT22;4492;48.736;9.092;2022-12-29T06:37:27;9.40;99.90
8914;DHT22;4492;48.736;9.092;2022-12-29T06:39:53;9.50;99.90
8914;DHT22;4492;48.736;9.092;2022-12-29T06:42:19;9.40;99.90
8914;DHT22;4492;48.736;9.092;2022-12-29T06:44:44;9.50;99.90
8914;DHT22;4492;48.736;9.092;2022-12-29T06:47:10;9.50;99.90
8914;DHT22;4492;48.736;9.092;2022-12-29T06:49:36;9.50;99.90
8914;DHT22;4492;48.736;9.092;2022-12-29T06:52:02;9.50;99.90
8914;DHT22;4492;48.736;9.092;2022-12-29T06:54:30;9.50;99.90
8914;DHT22;4492;48.736;9.092;2022-12-29T06:56:56;9.50;99.90
8914;DHT22;4492;48.736;9.092;2022-12-29T06:59:21;9.50;99.90
8914;DHT22;4492;48.736;9.092;2022-12-29T07:01:47;9.40;99.90
8914;DHT22;4492;48.736;9.092;2022-12-29T07:04:12;9.30;99.90
8914;DHT22;4492;48.736;9.092;2022-12-29T07:06:38;9.20;99.90
8914;DHT22;4492;48.736;9.092;2022-12-29T07:09:06;9.10;99.90
8914;DHT22;4492;48.736;9.092;2022-12-29T07:11:32;9.10;99.90
8914;DHT22;4492;48.736;9.092;2022-12-29T07:13:58;9.00;99.90
8914;DHT22;4492;48.736;9.092;2022-12-29T07:16:24;8.90;99.90
8914;DHT22;4492;48.736;9.092;2022-12-29T07:18:49;8.90;99.90
8914;DHT22;4492;48.736;9.092;2022-12-29T07:21:15;8.90;99.90
8914;DHT22;4492;48.736;9.092;2022-12-29T07:23:41;8.80;99.90
8914;DHT22;4492;48.736;9.092;2022-12-29T07:26:09;8.70;99.90
8914;DHT22;4492;48.736;9.092;2022-12-29T07:28:36;8.80;99.90
8914;DHT22;4492;48.736;9.092;2022-12-29T07:31:03;8.80;99.90
8914;DHT22;4492;48.736;9.092;2022-12-29T07:33:30;8.80;99.90
8914;DHT22;4492;48.736;9.092;2022-12-29T07:35:55;8.80;99.90
8914;DHT22;4492;48.736;9.092;2022-12-29T07:38:21;8.80;99.90
8914;DHT22;4492;48.736;9.092;2022-12-29T07:40:47;8.80;99.90
8914;DHT22;4492;48.736;9.092;2022-12-29T07:43:13;8.90;99.90
8914;DHT22;4492;48.736;9.092;2022-12-29T07:45:38;8.80;99.90
8914;DHT22;4492;48.736;9.092;2022-12-29T07:48:05;8.80;99.90
8914;DHT22;4492;48.736;9.092;2022-12-29T07:50:33;8.80;99.90
8914;DHT22;4492;48.736;9.092;2022-12-29T07:52:59;8.90;99.90
8914;DHT22;4492;48.736;9.092;2022-12-29T07:55:25;9.00;99.90
8914;DHT22;4492;48.736;9.092;2022-12-29T07:57:53;9.10;99.90
8914;DHT22;4492;48.736;9.092;2022-12-29T08:00:19;9.10;99.90
8914;DHT22;4492;48.736;9.092;2022-12-29T08:02:45;9.10;99.90
8914;DHT22;4492;48.736;9.092;2022-12-29T08:05:10;9.10;99.90
8914;DHT22;4492;48.736;9.092;2022-12-29T08:07:36;9.10;99.90
8914;DHT22;4492;48.736;9.092;2022-12-29T08:10:01;9.10;99.90
8914;DHT22;4492;48.736;9.092;2022-12-29T08:12:27;9.20;99.90
8914;DHT22;4492;48.736;9.092;2022-12-29T08:14:53;9.20;99.90
8914;DHT22;4492;48.736;9.092;2022-12-29T08:17:19;9.20;99.90
8914;DHT22;4492;48.736;9.092;2022-12-29T08:19:44;9.30;99.90
8914;DHT22;4492;48.736;9.092;2022-12-29T08:22:10;9.40;99.90
8914;DHT22;4492;48.736;9.092;2022-12-29T08:24:36;9.40;99.90
8914;DHT22;4492;48.736;9.092;2022-12-29T08:27:02;9.40;99.90
8914;DHT22;4492;48.736;9.092;2022-12-29T08:29:27;9.40;99.90
8914;DHT22;4492;48.736;9.092;2022-12-29T08:31:53;9.50;99.90
8914;DHT22;4492;48.736;9.092;2022-12-29T08:34:18;9.50;99.90
8914;DHT22;4492;48.736;9.092;2022-12-29T08:36:44;9.50;99.90
8914;DHT22;4492;48.736;9.092;2022-12-29T08:39:09;9.60;99.90
8914;DHT22;4492;48.736;9.092;2022-12-29T08:41:35;9.40;99.90
8914;DHT22;4492;48.736;9.092;2022-12-29T08:44:01;9.60;99.90
8914;DHT22;4492;48.736;9.092;2022-12-29T08:46:26;9.60;99.90
8914;DHT22;4492;48.736;9.092;2022-12-29T08:48:53;9.60;99.90
8914;DHT22;4492;48.736;9.092;2022-12-29T08:51:18;9.50;99.90
8914;DHT22;4492;48.736;9.092;2022-12-29T08:53:44;9.60;99.90
8914;DHT22;4492;48.736;9.092;2022-12-29T08:56:10;9.60;99.90
8914;DHT22;4492;48.736;9.092;2022-12-29T08:58:36;9.50;99.90
8914;DHT22;4492;48.736;9.092;2022-12-29T09:01:02;9.50;99.90
8914;DHT22;4492;48.736;9.092;2022-12-29T09:03:28;9.50;99.90
8914;DHT22;4492;48.736;9.092;2022-12-29T09:05:54;9.50;99.90
8914;DHT22;4492;48.736;9.092;2022-12-29T09:08:21;9.50;99.90
8914;DHT22;4492;48.736;9.092;2022-12-29T09:10:47;9.50;99.90
8914;DHT22;4492;48.736;9.092;2022-12-29T09:13:13;9.50;99.90
8914;DHT22;4492;48.736;9.092;2022-12-29T09:15:39;9.60;99.90
8914;DHT22;4492;48.736;9.092;2022-12-29T09:18:06;9.70;99.90
8914;DHT22;4492;48.736;9.092;2022-12-29T09:20:32;9.80;99.90
8914;DHT22;4492;48.736;9.092;2022-12-29T09:22:57;9.80;99.90
8914;DHT22;4492;48.736;9.092;2022-12-29T09:25:24;10.00;99.90
8914;DHT22;4492;48.736;9.092;2022-12-29T09:27:50;10.00;99.90
8914;DHT22;4492;48.736;9.092;2022-12-29T09:30:19;10.10;99.90
8914;DHT22;4492;48.736;9.092;2022-12-29T09:32:46;10.30;99.90
8914;DHT22;4492;48.736;9.092;2022-12-29T09:35:13;10.40;99.90
8914;DHT22;4492;48.736;9.092;2022-12-29T09:37:41;10.60;99.90
8914;DHT22;4492;48.736;9.092;2022-12-29T09:40:09;10.70;99.90
8914;DHT22;4492;48.736;9.092;2022-12-29T09:45:29;11.00;99.90
8914;DHT22;4492;48.736;9.092;2022-12-29T09:47:57;11.10;99.90
8914;DHT22;4492;48.736;9.092;2022-12-29T09:50:24;11.20;99.90
8914;DHT22;4492;48.736;9.092;2022-12-29T09:52:54;11.40;99.90
8914;DHT22;4492;48.736;9.092;2022-12-29T09:55:25;11.60;99.90
8914;DHT22;4492;48.736;9.092;2022-12-29T09:58:00;11.70;99.90
8914;DHT22;4492;48.736;9.092;2022-12-29T10:00:38;11.70;99.90
8914;DHT22;4492;48.736;9.092;2022-12-29T10:03:16;11.70;99.90
8914;DHT22;4492;48.736;9.092;2022-12-29T10:06:15;11.60;99.90
8914;DHT22;4492;48.736;9.092;2022-12-29T10:19:18;11.60;99.90
8914;DHT22;4492;48.736;9.092;2022-12-29T10:24:34;11.70;99.90
8914;DHT22;4492;48.736;9.092;2022-12-29T10:27:07;11.80;99.90
8914;DHT22;4492;48.736;9.092;2022-12-29T10:29:40;11.80;99.90
8914;DHT22;4492;48.736;9.092;2022-12-29T10:34:53;11.80;99.90
8914;DHT22;4492;48.736;9.092;2022-12-29T10:43:12;11.90;99.90
8914;DHT22;4492;48.736;9.092;2022-12-29T10:45:43;11.90;99.90
8914;DHT22;4492;48.736;9.092;2022-12-29T10:48:25;12.00;99.90
8914;DHT22;4492;48.736;9.092;2022-12-29T10:50:55;12.00;99.90
8914;DHT22;4492;48.736;9.092;2022-12-29T10:53:25;12.20;99.90
8914;DHT22;4492;48.736;9.092;2022-12-29T10:55:52;12.40;99.90
8914;DHT22;4492;48.736;9.092;2022-12-29T10:58:19;12.60;99.90
8914;DHT22;4492;48.736;9.092;2022-12-29T11:00:50;12.70;99.90
8914;DHT22;4492;48.736;9.092;2022-12-29T11:03:41;12.70;99.90
8914;DHT22;4492;48.736;9.092;2022-12-29T11:06:18;12.70;99.90
8914;DHT22;4492;48.736;9.092;2022-12-29T11:09:16;12.60;99.90
8914;DHT22;4492;48.736;9.092;2022-12-29T11:11:43;12.50;99.90
8914;DHT22;4492;48.736;9.092;2022-12-29T11:14:13;12.40;99.90
8914;DHT22;4492;48.736;9.092;2022-12-29T11:16:40;12.30;99.90
8914;DHT22;4492;48.736;9.092;2022-12-29T11:19:20;12.30;99.90
8914;DHT22;4492;48.736;9.092;2022-12-29T11:21:47;12.20;99.90
8914;DHT22;4492;48.736;9.092;2022-12-29T11:24:20;12.10;99.90
8914;DHT22;4492;48.736;9.092;2022-12-29T11:26:49;12.00;99.90
8914;DHT22;4492;48.736;9.092;2022-12-29T11:31:47;11.90;99.90
8914;DHT22;4492;48.736;9.092;2022-12-29T11:34:43;11.80;99.90
8914;DHT22;4492;48.736;9.092;2022-12-29T11:42:56;11.40;99.90
8914;DHT22;4492;48.736;9.092;2022-12-29T11:45:29;11.30;99.90
8914;DHT22;4492;48.736;9.092;2022-12-29T11:48:09;11.30;99.90
8914;DHT22;4492;48.736;9.092;2022-12-29T11:50:41;11.30;99.90
8914;DHT22;4492;48.736;9.092;2022-12-29T11:53:26;11.30;99.90
8914;DHT22;4492;48.736;9.092;2022-12-29T11:56:00;11.30;99.90
8914;DHT22;4492;48.736;9.092;2022-12-29T11:58:35;11.20;99.90
8914;DHT22;4492;48.736;9.092;2022-12-29T12:01:18;11.20;99.90
8914;DHT22;4492;48.736;9.092;2022-12-29T12:04:14;11.00;99.90
8914;DHT22;4492;48.736;9.092;2022-12-29T12:09:35;11.00;99.90
8914;DHT22;4492;48.736;9.092;2022-12-29T12:12:03;10.90;99.90
8914;DHT22;4492;48.736;9.092;2022-12-29T12:14:41;10.90;99.90
8914;DHT22;4492;48.736;9.092;2022-12-29T12:17:25;10.90;99.90
8914;DHT22;4492;48.736;9.092;2022-12-29T12:22:38;10.90;99.90
8914;DHT22;4492;48.736;9.092;2022-12-29T12:30:40;10.90;99.90
8914;DHT22;4492;48.736;9.092;2022-12-29T12:50:36;10.60;99.90
8914;DHT22;4492;48.736;9.092;2022-12-29T12:59:34;10.60;99.90
8914;DHT22;4492;48.736;9.092;2022-12-29T13:10:00;10.90;99.90
8914;DHT22;4492;48.736;9.092;2022-12-29T13:15:21;10.90;99.90
8914;DHT22;4492;48.736;9.092;2022-12-29T13:25:39;11.20;99.90
8914;DHT22;4492;48.736;9.092;2022-12-29T13:28:14;11.10;99.90
8914;DHT22;4492;48.736;9.092;2022-12-29T13:30:53;11.00;99.90
8914;DHT22;4492;48.736;9.092;2022-12-29T13:33:41;10.90;99.90
8914;DHT22;4492;48.736;9.092;2022-12-29T13:41:55;10.70;99.90
8914;DHT22;4492;48.736;9.092;2022-12-29T13:44:30;10.70;99.90
8914;DHT22;4492;48.736;9.092;2022-12-29T13:46:59;10.70;99.90
8914;DHT22;4492;48.736;9.092;2022-12-29T13:49:26;10.70;99.90
8914;DHT22;4492;48.736;9.092;2022-12-29T13:51:58;10.70;99.90
8914;DHT22;4492;48.736;9.092;2022-12-29T13:54:43;10.70;99.90
8914;DHT22;4492;48.736;9.092;2022-12-29T13:57:26;10.70;99.90
8914;DHT22;4492;48.736;9.092;2022-12-29T13:59:57;10.70;99.90
8914;DHT22;4492;48.736;9.092;2022-12-29T14:02:37;10.70;99.90
8914;DHT22;4492;48.736;9.092;2022-12-29T14:07:45;10.70;99.90
8914;DHT22;4492;48.736;9.092;2022-12-29T14:10:34;10.80;99.90
8914;DHT22;4492;48.736;9.092;2022-12-29T14:13:21;10.80;99.90
8914;DHT22;4492;48.736;9.092;2022-12-29T14:16:05;10.80;99.90
8914;DHT22;4492;48.736;9.092;2022-12-29T14:18:32;10.80;99.90
8914;DHT22;4492;48.736;9.092;2022-12-29T14:21:19;10.70;99.90
8914;DHT22;4492;48.736;9.092;2022-12-29T14:23:47;10.70;99.90
8914;DHT22;4492;48.736;9.092;2022-12-29T14:28:56;10.60;99.90
8914;DHT22;4492;48.736;9.092;2022-12-29T14:39:38;10.70;99.90
8914;DHT22;4492;48.736;9.092;2022-12-29T14:42:14;10.60;99.90
8914;DHT22;4492;48.736;9.092;2022-12-29T14:44:56;10.40;99.90
8914;DHT22;4492;48.736;9.092;2022-12-29T14:50:02;10.20;99.90
8914;DHT22;4492;48.736;9.092;2022-12-29T14:52:30;10.20;99.90
8914;DHT22;4492;48.736;9.092;2022-12-29T14:55:28;10.30;99.90
8914;DHT22;4492;48.736;9.092;2022-12-29T14:57:51;10.10;99.90
8914;DHT22;4492;48.736;9.092;2022-12-29T15:00:33;10.00;99.90
8914;DHT22;4492;48.736;9.092;2022-12-29T15:05:35;9.90;99.90
8914;DHT22;4492;48.736;9.092;2022-12-29T15:08:02;9.80;99.90
8914;DHT22;4492;48.736;9.092;2022-12-29T15:10:36;9.70;99.90
8914;DHT22;4492;48.736;9.092;2022-12-29T15:13:05;9.70;99.90
8914;DHT22;4492;48.736;9.092;2022-12-29T15:15:39;9.70;99.90
8914;DHT22;4492;48.736;9.092;2022-12-29T15:18:31;9.70;99.90
8914;DHT22;4492;48.736;9.092;2022-12-29T15:21:05;9.70;99.90
8914;DHT22;4492;48.736;9.092;2022-12-29T15:23:33;9.70;99.90
8914;DHT22;4492;48.736;9.092;2022-12-29T15:26:05;9.70;99.90
8914;DHT22;4492;48.736;9.092;2022-12-29T15:28:43;9.70;99.90
8914;DHT22;4492;48.736;9.092;2022-12-29T15:31:15;9.70;99.90
8914;DHT22;4492;48.736;9.092;2022-12-29T15:33:44;9.70;99.90
8914;DHT22;4492;48.736;9.092;2022-12-29T15:36:24;9.70;99.90
8914;DHT22;4492;48.736;9.092;2022-12-29T15:38:50;9.70;99.90
8914;DHT22;4492;48.736;9.092;2022-12-29T15:41:28;9.70;99.90
8914;DHT22;4492;48.736;9.092;2022-12-29T15:44:14;9.60;99.90
8914;DHT22;4492;48.736;9.092;2022-12-29T15:46:42;9.70;99.90
8914;DHT22;4492;48.736;9.092;2022-12-29T15:49:08;9.70;99.90
8914;DHT22;4492;48.736;9.092;2022-12-29T15:51:38;9.80;99.90
8914;DHT22;4492;48.736;9.092;2022-12-29T15:54:05;9.80;99.90
8914;DHT22;4492;48.736;9.092;2022-12-29T15:56:32;9.80;99.90
8914;DHT22;4492;48.736;9.092;2022-12-29T15:58:59;9.90;99.90
8914;DHT22;4492;48.736;9.092;2022-12-29T16:01:32;10.00;99.90
8914;DHT22;4492;48.736;9.092;2022-12-29T16:04:00;9.90;99.90
8914;DHT22;4492;48.736;9.092;2022-12-29T16:06:32;9.80;99.90
8914;DHT22;4492;48.736;9.092;2022-12-29T16:08:59;9.60;99.90
8914;DHT22;4492;48.736;9.092;2022-12-29T16:11:26;9.40;99.90
8914;DHT22;4492;48.736;9.092;2022-12-29T16:13:53;9.10;99.90
8914;DHT22;4492;48.736;9.092;2022-12-29T16:16:30;8.90;99.90
8914;DHT22;4492;48.736;9.092;2022-12-29T16:18:57;8.70;99.90
8914;DHT22;4492;48.736;9.092;2022-12-29T16:21:28;8.60;99.90
8914;DHT22;4492;48.736;9.092;2022-12-29T16:23:56;8.40;99.90
8914;DHT22;4492;48.736;9.092;2022-12-29T16:26:24;8.30;99.90
8914;DHT22;4492;48.736;9.092;2022-12-29T16:28:55;8.20;99.90
8914;DHT22;4492;48.736;9.092;2022-12-29T16:31:36;8.10;99.90
8914;DHT22;4492;48.736;9.092;2022-12-29T16:34:25;8.00;99.90
8914;DHT22;4492;48.736;9.092;2022-12-29T16:36:56;7.90;99.90
8914;DHT22;4492;48.736;9.092;2022-12-29T16:39:38;7.90;99.90
8914;DHT22;4492;48.736;9.092;2022-12-29T16:42:33;8.00;99.90
8914;DHT22;4492;48.736;9.092;2022-12-29T16:47:47;8.00;99.90
8914;DHT22;4492;48.736;9.092;2022-12-29T16:50:18;8.00;99.90
8914;DHT22;4492;48.736;9.092;2022-12-29T16:52:49;8.00;99.90
8914;DHT22;4492;48.736;9.092;2022-12-29T16:55:18;8.10;99.90
8914;DHT22;4492;48.736;9.092;2022-12-29T16:57:46;8.00;99.90
8914;DHT22;4492;48.736;9.092;2022-12-29T17:00:25;8.00;99.90
8914;DHT22;4492;48.736;9.092;2022-12-29T17:02:54;8.00;99.90
8914;DHT22;4492;48.736;9.092;2022-12-29T17:05:21;7.90;99.90
8914;DHT22;4492;48.736;9.092;2022-12-29T17:07:47;7.90;99.90
8914;DHT22;4492;48.736;9.092;2022-12-29T17:10:13;7.90;99.90
8914;DHT22;4492;48.736;9.092;2022-12-29T17:12:41;7.80;99.90
8914;DHT22;4492;48.736;9.092;2022-12-29T17:15:14;7.80;99.90
8914;DHT22;4492;48.736;9.092;2022-12-29T17:17:47;7.90;99.90
8914;DHT22;4492;48.736;9.092;2022-12-29T17:20:28;7.90;99.90
8914;DHT22;4492;48.736;9.092;2022-12-29T17:22:55;7.80;99.90
8914;DHT22;4492;48.736;9.092;2022-12-29T17:25:27;7.80;99.90
8914;DHT22;4492;48.736;9.092;2022-12-29T17:28:00;7.70;99.90
8914;DHT22;4492;48.736;9.092;2022-12-29T17:30:28;7.80;99.90
8914;DHT22;4492;48.736;9.092;2022-12-29T17:33:01;7.80;99.90
8914;DHT22;4492;48.736;9.092;2022-12-29T17:35:27;7.70;99.90
8914;DHT22;4492;48.736;9.092;2022-12-29T17:37:53;7.80;99.90
8914;DHT22;4492;48.736;9.092;2022-12-29T17:40:21;7.80;99.90
8914;DHT22;4492;48.736;9.092;2022-12-29T17:42:48;7.80;99.90
8914;DHT22;4492;48.736;9.092;2022-12-29T17:45:20;7.80;99.90
8914;DHT22;4492;48.736;9.092;2022-12-29T17:47:46;7.70;99.90
8914;DHT22;4492;48.736;9.092;2022-12-29T17:50:14;7.60;99.90
8914;DHT22;4492;48.736;9.092;2022-12-29T17:52:42;7.60;99.90
8914;DHT22;4492;48.736;9.092;2022-12-29T17:55:19;7.50;99.90
8914;DHT22;4492;48.736;9.092;2022-12-29T17:57:45;7.50;99.90
8914;DHT22;4492;48.736;9.092;2022-12-29T18:00:15;7.50;99.90
8914;DHT22;4492;48.736;9.092;2022-12-29T18:02:42;7.50;99.90
8914;DHT22;4492;48.736;9.092;2022-12-29T18:05:21;7.50;99.90
8914;DHT22;4492;48.736;9.092;2022-12-29T18:07:50;7.60;99.90
8914;DHT22;4492;48.736;9.092;2022-12-29T18:10:16;7.60;99.90
8914;DHT22;4492;48.736;9.092;2022-12-29T18:12:44;7.60;99.90
8914;DHT22;4492;48.736;9.092;2022-12-29T18:15:32;7.60;99.90
8914;DHT22;4492;48.736;9.092;2022-12-29T18:20:33;7.60;99.90
8914;DHT22;4492;48.736;9.092;2022-12-29T18:22:59;7.60;99.90
8914;DHT22;4492;48.736;9.092;2022-12-29T18:25:46;7.50;99.90
8914;DHT22;4492;48.736;9.092;2022-12-29T18:28:13;7.50;99.90
8914;DHT22;4492;48.736;9.092;2022-12-29T18:30:39;7.50;99.90
8914;DHT22;4492;48.736;9.092;2022-12-29T18:33:04;7.50;99.90
8914;DHT22;4492;48.736;9.092;2022-12-29T18:38:17;7.40;99.90
8914;DHT22;4492;48.736;9.092;2022-12-29T18:40:46;7.40;99.90
8914;DHT22;4492;48.736;9.092;2022-12-29T18:43:16;7.40;99.90
8914;DHT22;4492;48.736;9.092;2022-12-29T18:45:42;7.40;99.90
8914;DHT22;4492;48.736;9.092;2022-12-29T18:48:15;7.40;99.90
8914;DHT22;4492;48.736;9.092;2022-12-29T18:50:42;7.40;99.90
8914;DHT22;4492;48.736;9.092;2022-12-29T18:53:34;7.30;99.90
8914;DHT22;4492;48.736;9.092;2022-12-29T18:56:02;7.30;99.90
8914;DHT22;4492;48.736;9.092;2022-12-29T18:58:28;7.30;99.90
8914;DHT22;4492;48.736;9.092;2022-12-29T19:00:53;7.30;99.90
8914;DHT22;4492;48.736;9.092;2022-12-29T19:03:19;7.20;99.90
8914;DHT22;4492;48.736;9.092;2022-12-29T19:05:46;7.20;99.90